LEGT

Getafe Air Base

Airport
ICAO code
LEGT
Summary
ICAO Region
EUR
ICAO Territory
Location

,

Serving
Madrid
Elevation
2031 ft
Coordinates
40° 17' 39" N , 3° 43' 26" W
Metar
Observation
LEGT 110800Z 17003KT CAVOK 28/15 Q1017
Station
Madrid / Getafe
Date/Time
2022-08-11 08:00:00
Wind direction
170°
Wind speed
03 kts
Lowest cloud amount
clouds and visibility OK
Temperature
28°C
Dew point
15°C
Humidity
45%
QNH
1017 hPa
Weather condition
n/a

Runways

Designator Length Width Surface Rops
05R/23L 920 30 GRE No/No
5/23 2480 60 ASP No/No

Airport map

Aerial View

SKYbrary Partners:

Safety knowledge contributed by: